Ada, MI (49301)

3:07 PM EDT on August 27, 2016 (GMT -0400)
Cascade | | Change Station

Elev 759 ft 42.94 °N, 85.50 °W | Updated 3 seconds ago

Mostly Cloudy
Mostly Cloudy
70.4 °F
Feels Like 70.4 °F
N
0.0
Wind Variable Wind from North
Gusts 2.0 mph

Today
High -- | Low -- °F
--% Chance of Precip.
Yesterday
High -- | Low -- °F
Precip. -- in
Pressure 30.07 in
Visibility 10.0 miles
Clouds Mostly Cloudy 1100 ft
Mostly Cloudy 14000 ft
Mostly Cloudy 20000 ft
Dew Point 68 °F
Humidity 93%
Rainfall 0.76 in
Snow Depth Not available.
7:01 AM 8:24 PM
Waning Crescent, 22% visible
METAR KGRR 271853Z 15005KT 10SM BKN011 BKN140 BKN200 22/18 A3007 RMK AO2 SLP181 T02220183
Pressure 30.07 in
Visibility 10.0 miles
Clouds Mostly Cloudy 1100 ft
Mostly Cloudy 14000 ft
Mostly Cloudy 20000 ft
Dew Point 68 °F
Humidity 93%
Rainfall 0.76 in
Snow Depth Not available.
7:01 AM 8:24 PM
Waning Crescent, 22% visible
METAR KGRR 271853Z 15005KT 10SM BKN011 BKN140 BKN200 22/18 A3007 RMK AO2 SLP181 T02220183

10-Day Weather Forecast

Almanac

Astronomy

Aug. 27, 2016 Rise Set
Actual Time
Civil Twilight
Nautical Twilight
Astronomical Twilight
Moon
Length of Visible Light
Length of Day
Tomorrow will be .
, % of the Moon is Illuminated

Today's Extremes

State Highs State Lows

Community

WunderPhotos

Upload Photos

1,935,399 photos uploaded!

WunderBlog® & News

Nearby

Air Quality

  Air Quality AQ Index Pollutant
Not available.

Snow Depth

Station Depth Elevation

Earthquake Activity

City Distance Mag. Time & Date
Minimum magnitude displayed is 2.5.

Coastal Water Temperatures

Place Temperature

Stations

Nearby Weather Stations

Station Location Temp. Windchill Dew Point Humidity Wind Precip. Elev Updated Type
                   

Watches & Warnings

There are currently no watches in effect.